Estrela d'Oeste, Brazil
Current Conditions -  °F | °C
As of 7:00 AM on Monday 20 Oct 2014 (Local Time) from SBAU Reporting Station
Drizzle Drizzle  
Wind Chill: 72°   Ceiling: 5000
Heat Index: 72°   Visibility: 5mi
Dew Point: 70°   Wind: 3mph
Humidity: 94%   Direction: 330°NNW
Pressure: 30"   Gusts: NA
Location:  20.29°S, 50.4°W
Report Text: SBAU 201000Z 33003KT 8000 -DZ SCT025 BKN050 BKN080 22/21 Q1016
Loading
Personal Weather Stations






























Interactive Weather Map
Tropical Storm Tracking
New forecast layout! Learn more

10-Day Weather Forecast

Advertisements
Track Severe Weather on mobile